sensor_id;sensor_type;location;lat;lon;timestamp;P1;durP1;ratioP1;P2;durP2;ratioP2
72720;SDS011;60835;50.974;10.322;2022-09-17T00:01:03;5.68;;;2.60;;
72720;SDS011;60835;50.974;10.322;2022-09-17T00:03:30;5.53;;;2.25;;
72720;SDS011;60835;50.974;10.322;2022-09-17T00:06:03;8.43;;;2.33;;
72720;SDS011;60835;50.974;10.322;2022-09-17T00:14:57;9.32;;;2.70;;
72720;SDS011;60835;50.974;10.322;2022-09-17T00:17:23;8.20;;;2.40;;
72720;SDS011;60835;50.974;10.322;2022-09-17T00:19:49;7.53;;;2.40;;
72720;SDS011;60835;50.974;10.322;2022-09-17T00:22:16;6.53;;;2.40;;
72720;SDS011;60835;50.974;10.322;2022-09-17T00:24:42;7.47;;;2.17;;
72720;SDS011;60835;50.974;10.322;2022-09-17T00:27:08;3.80;;;1.92;;
72720;SDS011;60835;50.974;10.322;2022-09-17T00:29:35;9.25;;;2.38;;
72720;SDS011;60835;50.974;10.322;2022-09-17T00:32:01;7.20;;;2.03;;
72720;SDS011;60835;50.974;10.322;2022-09-17T00:34:28;6.70;;;2.17;;
72720;SDS011;60835;50.974;10.322;2022-09-17T00:36:54;5.30;;;1.92;;
72720;SDS011;60835;50.974;10.322;2022-09-17T00:39:21;3.55;;;1.95;;
72720;SDS011;60835;50.974;10.322;2022-09-17T00:41:47;6.05;;;2.00;;
72720;SDS011;60835;50.974;10.322;2022-09-17T00:47:15;7.32;;;1.77;;
72720;SDS011;60835;50.974;10.322;2022-09-17T00:49:46;7.25;;;2.10;;
72720;SDS011;60835;50.974;10.322;2022-09-17T00:52:15;5.50;;;1.80;;
72720;SDS011;60835;50.974;10.322;2022-09-17T00:54:48;8.35;;;2.40;;
72720;SDS011;60835;50.974;10.322;2022-09-17T00:57:23;6.43;;;1.95;;
72720;SDS011;60835;50.974;10.322;2022-09-17T00:59:50;9.82;;;2.22;;
72720;SDS011;60835;50.974;10.322;2022-09-17T01:02:16;6.38;;;2.28;;
72720;SDS011;60835;50.974;10.322;2022-09-17T01:04:44;11.90;;;2.45;;
72720;SDS011;60835;50.974;10.322;2022-09-17T01:07:34;4.70;;;2.33;;
72720;SDS011;60835;50.974;10.322;2022-09-17T01:09:59;7.90;;;3.00;;
72720;SDS011;60835;50.974;10.322;2022-09-17T01:12:51;5.90;;;2.33;;
72720;SDS011;60835;50.974;10.322;2022-09-17T01:15:44;7.85;;;2.40;;
72720;SDS011;60835;50.974;10.322;2022-09-17T01:23:49;6.80;;;2.22;;
72720;SDS011;60835;50.974;10.322;2022-09-17T01:32:20;6.47;;;2.55;;
72720;SDS011;60835;50.974;10.322;2022-09-17T01:35:01;9.20;;;3.63;;
72720;SDS011;60835;50.974;10.322;2022-09-17T01:38:02;4.95;;;2.55;;
72720;SDS011;60835;50.974;10.322;2022-09-17T01:40:44;5.47;;;2.78;;
72720;SDS011;60835;50.974;10.322;2022-09-17T01:46:19;6.45;;;2.45;;
72720;SDS011;60835;50.974;10.322;2022-09-17T01:48:55;7.38;;;2.15;;
72720;SDS011;60835;50.974;10.322;2022-09-17T01:51:27;4.18;;;1.80;;
72720;SDS011;60835;50.974;10.322;2022-09-17T01:54:21;7.65;;;2.10;;
72720;SDS011;60835;50.974;10.322;2022-09-17T01:56:54;3.88;;;1.60;;
72720;SDS011;60835;50.974;10.322;2022-09-17T01:59:32;3.17;;;1.98;;
72720;SDS011;60835;50.974;10.322;2022-09-17T02:02:06;6.45;;;2.35;;
72720;SDS011;60835;50.974;10.322;2022-09-17T02:04:54;2.33;;;1.40;;
72720;SDS011;60835;50.974;10.322;2022-09-17T02:07:25;2.42;;;1.40;;
72720;SDS011;60835;50.974;10.322;2022-09-17T02:09:56;2.90;;;1.30;;
72720;SDS011;60835;50.974;10.322;2022-09-17T02:15:23;1.60;;;1.30;;
72720;SDS011;60835;50.974;10.322;2022-09-17T02:17:54;2.47;;;1.20;;
72720;SDS011;60835;50.974;10.322;2022-09-17T02:20:42;3.42;;;1.08;;
72720;SDS011;60835;50.974;10.322;2022-09-17T02:23:19;2.90;;;1.25;;
72720;SDS011;60835;50.974;10.322;2022-09-17T02:25:58;4.18;;;1.27;;
72720;SDS011;60835;50.974;10.322;2022-09-17T02:28:49;3.25;;;1.10;;
72720;SDS011;60835;50.974;10.322;2022-09-17T02:31:23;2.50;;;1.00;;
72720;SDS011;60835;50.974;10.322;2022-09-17T02:33:50;2.85;;;1.10;;
72720;SDS011;60835;50.974;10.322;2022-09-17T02:36:20;2.30;;;1.30;;
72720;SDS011;60835;50.974;10.322;2022-09-17T02:38:47;3.00;;;1.20;;
72720;SDS011;60835;50.974;10.322;2022-09-17T02:41:23;3.00;;;1.00;;
72720;SDS011;60835;50.974;10.322;2022-09-17T02:52:16;2.88;;;0.98;;
72720;SDS011;60835;50.974;10.322;2022-09-17T02:57:32;4.15;;;1.15;;
72720;SDS011;60835;50.974;10.322;2022-09-17T03:00:16;1.02;;;0.93;;
72720;SDS011;60835;50.974;10.322;2022-09-17T03:02:48;2.97;;;1.35;;
72720;SDS011;60835;50.974;10.322;2022-09-17T03:05:23;2.72;;;1.40;;
72720;SDS011;60835;50.974;10.322;2022-09-17T03:07:53;2.58;;;1.10;;
72720;SDS011;60835;50.974;10.322;2022-09-17T03:10:20;4.25;;;1.20;;
72720;SDS011;60835;50.974;10.322;2022-09-17T03:12:46;3.53;;;1.25;;
72720;SDS011;60835;50.974;10.322;2022-09-17T03:15:13;1.08;;;0.95;;
72720;SDS011;60835;50.974;10.322;2022-09-17T03:17:39;1.60;;;0.90;;
72720;SDS011;60835;50.974;10.322;2022-09-17T03:20:06;0.95;;;0.88;;
72720;SDS011;60835;50.974;10.322;2022-09-17T03:22:33;0.85;;;0.73;;
72720;SDS011;60835;50.974;10.322;2022-09-17T03:25:00;3.10;;;0.90;;
72720;SDS011;60835;50.974;10.322;2022-09-17T03:27:27;2.55;;;0.90;;
72720;SDS011;60835;50.974;10.322;2022-09-17T03:29:53;1.05;;;0.70;;
72720;SDS011;60835;50.974;10.322;2022-09-17T03:32:19;1.40;;;0.70;;
72720;SDS011;60835;50.974;10.322;2022-09-17T03:34:46;1.75;;;0.80;;
72720;SDS011;60835;50.974;10.322;2022-09-17T03:37:12;3.33;;;0.85;;
72720;SDS011;60835;50.974;10.322;2022-09-17T03:39:39;2.72;;;0.80;;
72720;SDS011;60835;50.974;10.322;2022-09-17T03:42:05;1.52;;;0.90;;
72720;SDS011;60835;50.974;10.322;2022-09-17T03:44:34;2.65;;;0.80;;
72720;SDS011;60835;50.974;10.322;2022-09-17T03:47:01;0.93;;;0.70;;
72720;SDS011;60835;50.974;10.322;2022-09-17T03:49:30;1.40;;;0.95;;
72720;SDS011;60835;50.974;10.322;2022-09-17T03:51:57;2.22;;;0.80;;
72720;SDS011;60835;50.974;10.322;2022-09-17T03:54:24;3.80;;;1.45;;
72720;SDS011;60835;50.974;10.322;2022-09-17T03:56:51;0.73;;;0.73;;
72720;SDS011;60835;50.974;10.322;2022-09-17T03:59:20;3.10;;;0.90;;
72720;SDS011;60835;50.974;10.322;2022-09-17T04:01:47;3.72;;;1.17;;
72720;SDS011;60835;50.974;10.322;2022-09-17T04:04:14;3.85;;;1.05;;
72720;SDS011;60835;50.974;10.322;2022-09-17T04:06:40;0.98;;;0.88;;
72720;SDS011;60835;50.974;10.322;2022-09-17T04:09:07;1.20;;;1.08;;
72720;SDS011;60835;50.974;10.322;2022-09-17T04:11:36;1.05;;;0.90;;
72720;SDS011;60835;50.974;10.322;2022-09-17T04:14:02;1.30;;;0.98;;
72720;SDS011;60835;50.974;10.322;2022-09-17T04:16:31;1.25;;;1.15;;
72720;SDS011;60835;50.974;10.322;2022-09-17T04:18:57;3.33;;;0.95;;
72720;SDS011;60835;50.974;10.322;2022-09-17T04:21:24;1.58;;;0.80;;
72720;SDS011;60835;50.974;10.322;2022-09-17T04:23:50;1.70;;;0.93;;
72720;SDS011;60835;50.974;10.322;2022-09-17T04:26:17;1.10;;;1.00;;
72720;SDS011;60835;50.974;10.322;2022-09-17T04:28:43;2.55;;;0.85;;
72720;SDS011;60835;50.974;10.322;2022-09-17T04:31:10;3.03;;;0.82;;
72720;SDS011;60835;50.974;10.322;2022-09-17T04:33:36;2.28;;;0.90;;
72720;SDS011;60835;50.974;10.322;2022-09-17T04:36:03;1.13;;;1.00;;
72720;SDS011;60835;50.974;10.322;2022-09-17T04:38:29;2.25;;;0.98;;
72720;SDS011;60835;50.974;10.322;2022-09-17T04:40:56;2.03;;;0.82;;
72720;SDS011;60835;50.974;10.322;2022-09-17T04:43:22;1.75;;;0.52;;
72720;SDS011;60835;50.974;10.322;2022-09-17T04:45:48;0.93;;;0.60;;
72720;SDS011;60835;50.974;10.322;2022-09-17T04:48:15;1.48;;;0.68;;
72720;SDS011;60835;50.974;10.322;2022-09-17T04:50:43;1.35;;;0.65;;
72720;SDS011;60835;50.974;10.322;2022-09-17T04:53:09;1.38;;;0.80;;
72720;SDS011;60835;50.974;10.322;2022-09-17T04:55:35;1.02;;;0.60;;
72720;SDS011;60835;50.974;10.322;2022-09-17T04:58:02;0.70;;;0.70;;
72720;SDS011;60835;50.974;10.322;2022-09-17T05:00:29;1.17;;;0.68;;
72720;SDS011;60835;50.974;10.322;2022-09-17T05:02:56;0.98;;;0.50;;
72720;SDS011;60835;50.974;10.322;2022-09-17T05:05:22;0.50;;;0.50;;
72720;SDS011;60835;50.974;10.322;2022-09-17T05:07:49;0.82;;;0.40;;
72720;SDS011;60835;50.974;10.322;2022-09-17T05:10:16;0.50;;;0.50;;
72720;SDS011;60835;50.974;10.322;2022-09-17T05:12:48;0.32;;;0.32;;
72720;SDS011;60835;50.974;10.322;2022-09-17T05:15:19;0.60;;;0.60;;
72720;SDS011;60835;50.974;10.322;2022-09-17T05:17:46;0.75;;;0.38;;
72720;SDS011;60835;50.974;10.322;2022-09-17T05:20:13;1.75;;;0.70;;
72720;SDS011;60835;50.974;10.322;2022-09-17T05:22:47;0.98;;;0.57;;
72720;SDS011;60835;50.974;10.322;2022-09-17T05:25:17;1.23;;;0.63;;
72720;SDS011;60835;50.974;10.322;2022-09-17T05:27:45;2.67;;;0.80;;
72720;SDS011;60835;50.974;10.322;2022-09-17T05:30:11;2.67;;;0.80;;
72720;SDS011;60835;50.974;10.322;2022-09-17T05:32:38;2.97;;;0.80;;
72720;SDS011;60835;50.974;10.322;2022-09-17T05:35:06;2.53;;;0.77;;
72720;SDS011;60835;50.974;10.322;2022-09-17T05:37:33;4.68;;;1.08;;
72720;SDS011;60835;50.974;10.322;2022-09-17T05:40:00;4.25;;;1.05;;
72720;SDS011;60835;50.974;10.322;2022-09-17T05:42:27;4.40;;;1.10;;
72720;SDS011;60835;50.974;10.322;2022-09-17T05:44:54;3.65;;;1.55;;
72720;SDS011;60835;50.974;10.322;2022-09-17T05:47:20;5.55;;;1.33;;
72720;SDS011;60835;50.974;10.322;2022-09-17T05:49:46;4.43;;;1.08;;
72720;SDS011;60835;50.974;10.322;2022-09-17T05:52:13;8.13;;;1.50;;
72720;SDS011;60835;50.974;10.322;2022-09-17T05:54:39;8.77;;;1.63;;
72720;SDS011;60835;50.974;10.322;2022-09-17T05:57:05;12.05;;;1.58;;
72720;SDS011;60835;50.974;10.322;2022-09-17T05:59:32;7.20;;;1.25;;
72720;SDS011;60835;50.974;10.322;2022-09-17T06:01:59;6.65;;;1.73;;
72720;SDS011;60835;50.974;10.322;2022-09-17T06:04:25;7.40;;;1.45;;
72720;SDS011;60835;50.974;10.322;2022-09-17T06:06:54;8.07;;;1.77;;
72720;SDS011;60835;50.974;10.322;2022-09-17T06:09:21;3.50;;;1.38;;
72720;SDS011;60835;50.974;10.322;2022-09-17T06:11:47;11.25;;;1.40;;
72720;SDS011;60835;50.974;10.322;2022-09-17T06:14:13;17.23;;;1.95;;
72720;SDS011;60835;50.974;10.322;2022-09-17T06:16:40;6.47;;;1.77;;
72720;SDS011;60835;50.974;10.322;2022-09-17T06:19:07;15.52;;;2.30;;
72720;SDS011;60835;50.974;10.322;2022-09-17T06:21:33;8.70;;;1.70;;
72720;SDS011;60835;50.974;10.322;2022-09-17T06:24:00;9.80;;;2.28;;
72720;SDS011;60835;50.974;10.322;2022-09-17T06:26:26;10.45;;;2.03;;
72720;SDS011;60835;50.974;10.322;2022-09-17T06:28:52;12.38;;;1.92;;
72720;SDS011;60835;50.974;10.322;2022-09-17T06:31:19;6.72;;;2.20;;
72720;SDS011;60835;50.974;10.322;2022-09-17T06:33:45;9.05;;;2.15;;
72720;SDS011;60835;50.974;10.322;2022-09-17T06:36:13;11.32;;;2.33;;
72720;SDS011;60835;50.974;10.322;2022-09-17T06:38:40;15.93;;;1.92;;
72720;SDS011;60835;50.974;10.322;2022-09-17T06:41:06;10.65;;;2.17;;
72720;SDS011;60835;50.974;10.322;2022-09-17T06:43:33;15.68;;;2.08;;
72720;SDS011;60835;50.974;10.322;2022-09-17T06:46:00;18.05;;;2.60;;
72720;SDS011;60835;50.974;10.322;2022-09-17T06:48:28;14.85;;;2.95;;
72720;SDS011;60835;50.974;10.322;2022-09-17T06:50:59;13.80;;;2.55;;
72720;SDS011;60835;50.974;10.322;2022-09-17T06:53:27;16.75;;;2.75;;
72720;SDS011;60835;50.974;10.322;2022-09-17T06:55:55;14.45;;;2.72;;
72720;SDS011;60835;50.974;10.322;2022-09-17T06:58:30;12.00;;;3.03;;
72720;SDS011;60835;50.974;10.322;2022-09-17T07:00:57;15.65;;;2.95;;
72720;SDS011;60835;50.974;10.322;2022-09-17T07:03:28;13.60;;;2.63;;
72720;SDS011;60835;50.974;10.322;2022-09-17T07:05:56;12.32;;;2.33;;
72720;SDS011;60835;50.974;10.322;2022-09-17T07:08:23;12.13;;;2.80;;
72720;SDS011;60835;50.974;10.322;2022-09-17T07:10:53;17.92;;;3.35;;
72720;SDS011;60835;50.974;10.322;2022-09-17T07:13:21;11.88;;;2.70;;
72720;SDS011;60835;50.974;10.322;2022-09-17T07:15:54;12.63;;;2.40;;
72720;SDS011;60835;50.974;10.322;2022-09-17T07:18:23;7.82;;;1.92;;
72720;SDS011;60835;50.974;10.322;2022-09-17T07:20:56;11.68;;;2.80;;
72720;SDS011;60835;50.974;10.322;2022-09-17T07:23:25;10.23;;;1.88;;
72720;SDS011;60835;50.974;10.322;2022-09-17T07:25:54;15.45;;;2.28;;
72720;SDS011;60835;50.974;10.322;2022-09-17T07:28:22;19.48;;;2.92;;
72720;SDS011;60835;50.974;10.322;2022-09-17T07:30:52;13.95;;;2.70;;
72720;SDS011;60835;50.974;10.322;2022-09-17T07:33:20;16.35;;;2.90;;
72720;SDS011;60835;50.974;10.322;2022-09-17T07:35:52;15.18;;;2.95;;
72720;SDS011;60835;50.974;10.322;2022-09-17T07:38:27;14.88;;;2.47;;
72720;SDS011;60835;50.974;10.322;2022-09-17T07:41:01;18.40;;;3.17;;
72720;SDS011;60835;50.974;10.322;2022-09-17T07:43:33;12.00;;;3.20;;
72720;SDS011;60835;50.974;10.322;2022-09-17T07:46:01;20.92;;;2.67;;
72720;SDS011;60835;50.974;10.322;2022-09-17T07:48:29;15.68;;;2.70;;
72720;SDS011;60835;50.974;10.322;2022-09-17T07:50:56;14.88;;;2.20;;
72720;SDS011;60835;50.974;10.322;2022-09-17T07:53:23;15.82;;;2.30;;
72720;SDS011;60835;50.974;10.322;2022-09-17T07:55:50;11.70;;;2.70;;
72720;SDS011;60835;50.974;10.322;2022-09-17T07:58:38;17.35;;;2.58;;
72720;SDS011;60835;50.974;10.322;2022-09-17T08:01:06;12.68;;;2.85;;
72720;SDS011;60835;50.974;10.322;2022-09-17T08:03:34;13.75;;;3.83;;
72720;SDS011;60835;50.974;10.322;2022-09-17T08:06:12;9.15;;;2.25;;
72720;SDS011;60835;50.974;10.322;2022-09-17T08:08:41;16.50;;;2.78;;
72720;SDS011;60835;50.974;10.322;2022-09-17T08:13:36;16.05;;;2.53;;
72720;SDS011;60835;50.974;10.322;2022-09-17T08:16:04;20.48;;;2.60;;
72720;SDS011;60835;50.974;10.322;2022-09-17T08:18:39;10.07;;;2.65;;
72720;SDS011;60835;50.974;10.322;2022-09-17T08:21:08;11.18;;;2.20;;
72720;SDS011;60835;50.974;10.322;2022-09-17T08:23:36;14.15;;;2.55;;
72720;SDS011;60835;50.974;10.322;2022-09-17T08:26:04;13.63;;;3.13;;
72720;SDS011;60835;50.974;10.322;2022-09-17T08:28:33;19.70;;;3.00;;
72720;SDS011;60835;50.974;10.322;2022-09-17T08:31:01;13.13;;;2.78;;
72720;SDS011;60835;50.974;10.322;2022-09-17T08:33:34;11.80;;;2.83;;
72720;SDS011;60835;50.974;10.322;2022-09-17T08:36:02;21.83;;;3.17;;
72720;SDS011;60835;50.974;10.322;2022-09-17T08:38:30;14.95;;;3.15;;
72720;SDS011;60835;50.974;10.322;2022-09-17T08:46:15;15.27;;;2.35;;
72720;SDS011;60835;50.974;10.322;2022-09-17T08:48:43;9.68;;;2.20;;
72720;SDS011;60835;50.974;10.322;2022-09-17T08:51:23;8.18;;;2.60;;
72720;SDS011;60835;50.974;10.322;2022-09-17T08:54:16;18.75;;;2.97;;
72720;SDS011;60835;50.974;10.322;2022-09-17T08:57:06;15.63;;;3.33;;
72720;SDS011;60835;50.974;10.322;2022-09-17T08:59:57;9.70;;;2.92;;
72720;SDS011;60835;50.974;10.322;2022-09-17T09:05:39;15.25;;;3.30;;
72720;SDS011;60835;50.974;10.322;2022-09-17T09:11:19;17.45;;;3.13;;
72720;SDS011;60835;50.974;10.322;2022-09-17T09:13:54;14.23;;;2.53;;
72720;SDS011;60835;50.974;10.322;2022-09-17T09:16:27;15.45;;;2.75;;
72720;SDS011;60835;50.974;10.322;2022-09-17T09:18:59;13.27;;;3.20;;
72720;SDS011;60835;50.974;10.322;2022-09-17T09:21:43;20.48;;;3.53;;
72720;SDS011;60835;50.974;10.322;2022-09-17T09:24:22;6.75;;;2.45;;
72720;SDS011;60835;50.974;10.322;2022-09-17T09:37:56;6.88;;;1.70;;
72720;SDS011;60835;50.974;10.322;2022-09-17T09:40:32;8.75;;;1.95;;
72720;SDS011;60835;50.974;10.322;2022-09-17T09:43:06;9.45;;;2.70;;
72720;SDS011;60835;50.974;10.322;2022-09-17T09:46:00;7.07;;;1.63;;
72720;SDS011;60835;50.974;10.322;2022-09-17T09:57:13;11.15;;;2.60;;
72720;SDS011;60835;50.974;10.322;2022-09-17T09:59:43;10.25;;;2.28;;
72720;SDS011;60835;50.974;10.322;2022-09-17T10:02:10;9.13;;;2.15;;
72720;SDS011;60835;50.974;10.322;2022-09-17T10:04:37;10.35;;;2.50;;
72720;SDS011;60835;50.974;10.322;2022-09-17T10:07:04;13.90;;;2.50;;
72720;SDS011;60835;50.974;10.322;2022-09-17T10:09:33;10.73;;;2.20;;
72720;SDS011;60835;50.974;10.322;2022-09-17T10:12:03;8.18;;;1.90;;
72720;SDS011;60835;50.974;10.322;2022-09-17T10:14:33;5.72;;;2.03;;
72720;SDS011;60835;50.974;10.322;2022-09-17T10:19:43;13.85;;;2.22;;
72720;SDS011;60835;50.974;10.322;2022-09-17T10:24:50;12.82;;;2.40;;
72720;SDS011;60835;50.974;10.322;2022-09-17T10:27:19;8.63;;;2.10;;
72720;SDS011;60835;50.974;10.322;2022-09-17T10:29:50;17.40;;;3.75;;
72720;SDS011;60835;50.974;10.322;2022-09-17T10:32:37;13.35;;;2.70;;
72720;SDS011;60835;50.974;10.322;2022-09-17T10:37:50;13.57;;;2.38;;
72720;SDS011;60835;50.974;10.322;2022-09-17T10:45:22;12.85;;;2.60;;
72720;SDS011;60835;50.974;10.322;2022-09-17T10:47:50;11.13;;;2.80;;
72720;SDS011;60835;50.974;10.322;2022-09-17T10:52:49;8.90;;;2.88;;
72720;SDS011;60835;50.974;10.322;2022-09-17T11:06:18;11.60;;;3.53;;
72720;SDS011;60835;50.974;10.322;2022-09-17T11:09:04;10.77;;;3.38;;
72720;SDS011;60835;50.974;10.322;2022-09-17T11:35:01;14.00;;;3.35;;
72720;SDS011;60835;50.974;10.322;2022-09-17T11:38:09;8.52;;;1.83;;
72720;SDS011;60835;50.974;10.322;2022-09-17T11:40:51;9.77;;;2.15;;
72720;SDS011;60835;50.974;10.322;2022-09-17T11:43:30;8.13;;;1.95;;
72720;SDS011;60835;50.974;10.322;2022-09-17T11:46:16;9.85;;;2.70;;
72720;SDS011;60835;50.974;10.322;2022-09-17T11:48:47;6.63;;;1.85;;
72720;SDS011;60835;50.974;10.322;2022-09-17T11:51:35;7.13;;;2.42;;
72720;SDS011;60835;50.974;10.322;2022-09-17T11:54:25;6.30;;;1.77;;
72720;SDS011;60835;50.974;10.322;2022-09-17T11:56:56;7.38;;;1.85;;
72720;SDS011;60835;50.974;10.322;2022-09-17T12:04:37;3.75;;;1.13;;
72720;SDS011;60835;50.974;10.322;2022-09-17T12:12:56;4.32;;;1.40;;
72720;SDS011;60835;50.974;10.322;2022-09-17T12:15:28;6.50;;;1.38;;
72720;SDS011;60835;50.974;10.322;2022-09-17T12:20:58;7.93;;;1.63;;
72720;SDS011;60835;50.974;10.322;2022-09-17T12:29:34;8.15;;;2.00;;
72720;SDS011;60835;50.974;10.322;2022-09-17T12:35:35;6.10;;;1.60;;
72720;SDS011;60835;50.974;10.322;2022-09-17T12:38:38;8.13;;;2.00;;
72720;SDS011;60835;50.974;10.322;2022-09-17T12:43:55;10.80;;;2.70;;
72720;SDS011;60835;50.974;10.322;2022-09-17T12:49:35;8.40;;;1.90;;
72720;SDS011;60835;50.974;10.322;2022-09-17T12:52:31;5.80;;;2.20;;
72720;SDS011;60835;50.974;10.322;2022-09-17T12:55:20;7.03;;;1.90;;
72720;SDS011;60835;50.974;10.322;2022-09-17T13:00:58;3.63;;;1.45;;
72720;SDS011;60835;50.974;10.322;2022-09-17T13:03:51;5.00;;;1.70;;
72720;SDS011;60835;50.974;10.322;2022-09-17T13:14:32;4.45;;;1.95;;
72720;SDS011;60835;50.974;10.322;2022-09-17T13:22:31;7.70;;;1.90;;
72720;SDS011;60835;50.974;10.322;2022-09-17T13:25:08;2.90;;;1.42;;
72720;SDS011;60835;50.974;10.322;2022-09-17T13:27:37;5.43;;;1.60;;
72720;SDS011;60835;50.974;10.322;2022-09-17T13:30:05;5.75;;;1.55;;
72720;SDS011;60835;50.974;10.322;2022-09-17T13:37:40;4.43;;;1.30;;
72720;SDS011;60835;50.974;10.322;2022-09-17T13:45:33;3.50;;;1.10;;
72720;SDS011;60835;50.974;10.322;2022-09-17T13:48:28;2.45;;;1.20;;
72720;SDS011;60835;50.974;10.322;2022-09-17T13:51:10;4.13;;;2.13;;
72720;SDS011;60835;50.974;10.322;2022-09-17T13:54:04;4.53;;;1.48;;
72720;SDS011;60835;50.974;10.322;2022-09-17T13:56:34;6.82;;;1.90;;
72720;SDS011;60835;50.974;10.322;2022-09-17T13:59:09;3.03;;;1.10;;
72720;SDS011;60835;50.974;10.322;2022-09-17T14:04:32;4.30;;;2.13;;
72720;SDS011;60835;50.974;10.322;2022-09-17T14:06:59;3.25;;;1.27;;
72720;SDS011;60835;50.974;10.322;2022-09-17T14:09:30;3.10;;;1.25;;
72720;SDS011;60835;50.974;10.322;2022-09-17T14:21:13;4.65;;;1.50;;
72720;SDS011;60835;50.974;10.322;2022-09-17T14:23:53;3.85;;;0.90;;
72720;SDS011;60835;50.974;10.322;2022-09-17T14:26:27;3.33;;;1.20;;
72720;SDS011;60835;50.974;10.322;2022-09-17T14:29:19;6.13;;;1.27;;
72720;SDS011;60835;50.974;10.322;2022-09-17T14:32:18;5.45;;;1.27;;
72720;SDS011;60835;50.974;10.322;2022-09-17T14:34:52;6.50;;;1.52;;
72720;SDS011;60835;50.974;10.322;2022-09-17T14:37:19;3.72;;;0.95;;
72720;SDS011;60835;50.974;10.322;2022-09-17T14:39:48;8.30;;;1.50;;
72720;SDS011;60835;50.974;10.322;2022-09-17T14:42:18;3.97;;;1.08;;
72720;SDS011;60835;50.974;10.322;2022-09-17T14:44:53;5.00;;;1.30;;
72720;SDS011;60835;50.974;10.322;2022-09-17T14:47:24;3.78;;;1.30;;
72720;SDS011;60835;50.974;10.322;2022-09-17T14:49:52;6.70;;;2.15;;
72720;SDS011;60835;50.974;10.322;2022-09-17T14:52:29;10.32;;;3.35;;
72720;SDS011;60835;50.974;10.322;2022-09-17T14:55:10;7.57;;;2.30;;
72720;SDS011;60835;50.974;10.322;2022-09-17T14:57:43;4.07;;;1.05;;
72720;SDS011;60835;50.974;10.322;2022-09-17T15:00:18;1.55;;;1.00;;
72720;SDS011;60835;50.974;10.322;2022-09-17T15:03:05;5.40;;;2.22;;
72720;SDS011;60835;50.974;10.322;2022-09-17T15:05:35;5.15;;;1.85;;
72720;SDS011;60835;50.974;10.322;2022-09-17T15:10:43;7.82;;;1.80;;
72720;SDS011;60835;50.974;10.322;2022-09-17T15:13:15;3.58;;;1.35;;
72720;SDS011;60835;50.974;10.322;2022-09-17T15:18:58;3.72;;;2.17;;
72720;SDS011;60835;50.974;10.322;2022-09-17T15:21:32;3.25;;;1.77;;
72720;SDS011;60835;50.974;10.322;2022-09-17T15:26:49;3.90;;;1.35;;
72720;SDS011;60835;50.974;10.322;2022-09-17T15:29:19;2.30;;;1.02;;
72720;SDS011;60835;50.974;10.322;2022-09-17T15:31:50;6.00;;;2.03;;
72720;SDS011;60835;50.974;10.322;2022-09-17T15:34:17;5.85;;;2.90;;
72720;SDS011;60835;50.974;10.322;2022-09-17T15:39:42;2.47;;;1.20;;
72720;SDS011;60835;50.974;10.322;2022-09-17T15:42:16;4.38;;;1.55;;
72720;SDS011;60835;50.974;10.322;2022-09-17T15:44:44;4.82;;;1.90;;
72720;SDS011;60835;50.974;10.322;2022-09-17T15:50:10;3.03;;;1.15;;
72720;SDS011;60835;50.974;10.322;2022-09-17T15:52:39;7.25;;;3.05;;
72720;SDS011;60835;50.974;10.322;2022-09-17T15:55:25;3.97;;;1.50;;
72720;SDS011;60835;50.974;10.322;2022-09-17T15:57:56;5.57;;;2.15;;
72720;SDS011;60835;50.974;10.322;2022-09-17T16:00:24;1.98;;;1.33;;
72720;SDS011;60835;50.974;10.322;2022-09-17T16:02:51;4.32;;;1.73;;
72720;SDS011;60835;50.974;10.322;2022-09-17T16:07:50;1.50;;;0.77;;
72720;SDS011;60835;50.974;10.322;2022-09-17T16:10:17;4.40;;;1.15;;
72720;SDS011;60835;50.974;10.322;2022-09-17T16:12:44;3.30;;;1.13;;
72720;SDS011;60835;50.974;10.322;2022-09-17T16:15:14;1.85;;;1.25;;
72720;SDS011;60835;50.974;10.322;2022-09-17T16:17:43;0.75;;;0.57;;
72720;SDS011;60835;50.974;10.322;2022-09-17T16:20:17;2.55;;;0.88;;
72720;SDS011;60835;50.974;10.322;2022-09-17T16:22:45;1.80;;;0.82;;
72720;SDS011;60835;50.974;10.322;2022-09-17T16:25:13;2.22;;;1.10;;
72720;SDS011;60835;50.974;10.322;2022-09-17T16:28:01;4.30;;;0.80;;
72720;SDS011;60835;50.974;10.322;2022-09-17T16:30:29;4.75;;;1.70;;
72720;SDS011;60835;50.974;10.322;2022-09-17T16:32:55;2.95;;;1.23;;
72720;SDS011;60835;50.974;10.322;2022-09-17T16:35:22;2.97;;;1.17;;
72720;SDS011;60835;50.974;10.322;2022-09-17T16:37:51;9.57;;;1.30;;
72720;SDS011;60835;50.974;10.322;2022-09-17T16:40:20;4.78;;;1.35;;
72720;SDS011;60835;50.974;10.322;2022-09-17T16:42:48;2.28;;;1.63;;
72720;SDS011;60835;50.974;10.322;2022-09-17T16:45:14;5.68;;;1.58;;
72720;SDS011;60835;50.974;10.322;2022-09-17T16:47:41;4.53;;;1.10;;
72720;SDS011;60835;50.974;10.322;2022-09-17T16:50:09;3.55;;;1.40;;
72720;SDS011;60835;50.974;10.322;2022-09-17T16:52:40;1.98;;;0.90;;
72720;SDS011;60835;50.974;10.322;2022-09-17T16:55:07;2.20;;;1.42;;
72720;SDS011;60835;50.974;10.322;2022-09-17T16:57:36;3.72;;;1.15;;
72720;SDS011;60835;50.974;10.322;2022-09-17T17:00:03;2.83;;;0.98;;
72720;SDS011;60835;50.974;10.322;2022-09-17T17:02:34;3.00;;;1.38;;
72720;SDS011;60835;50.974;10.322;2022-09-17T17:05:00;3.30;;;1.60;;
72720;SDS011;60835;50.974;10.322;2022-09-17T17:07:27;2.60;;;1.33;;
72720;SDS011;60835;50.974;10.322;2022-09-17T17:09:53;11.90;;;4.88;;
72720;SDS011;60835;50.974;10.322;2022-09-17T17:12:20;10.20;;;2.97;;
72720;SDS011;60835;50.974;10.322;2022-09-17T17:14:46;6.53;;;2.47;;
72720;SDS011;60835;50.974;10.322;2022-09-17T17:17:15;5.38;;;1.92;;
72720;SDS011;60835;50.974;10.322;2022-09-17T17:19:42;3.83;;;1.33;;
72720;SDS011;60835;50.974;10.322;2022-09-17T17:22:14;6.65;;;1.52;;
72720;SDS011;60835;50.974;10.322;2022-09-17T17:24:40;4.60;;;1.52;;
72720;SDS011;60835;50.974;10.322;2022-09-17T17:27:07;4.30;;;1.13;;
72720;SDS011;60835;50.974;10.322;2022-09-17T17:29:35;4.75;;;0.80;;
72720;SDS011;60835;50.974;10.322;2022-09-17T17:32:02;1.90;;;0.73;;
72720;SDS011;60835;50.974;10.322;2022-09-17T17:34:29;6.57;;;2.15;;
72720;SDS011;60835;50.974;10.322;2022-09-17T17:36:56;6.35;;;1.20;;
72720;SDS011;60835;50.974;10.322;2022-09-17T17:39:23;3.72;;;1.92;;
72720;SDS011;60835;50.974;10.322;2022-09-17T17:41:49;7.15;;;2.85;;
72720;SDS011;60835;50.974;10.322;2022-09-17T17:44:19;7.82;;;3.35;;
72720;SDS011;60835;50.974;10.322;2022-09-17T17:46:45;7.28;;;2.28;;
72720;SDS011;60835;50.974;10.322;2022-09-17T17:49:12;6.10;;;2.65;;
72720;SDS011;60835;50.974;10.322;2022-09-17T17:51:38;9.07;;;2.42;;
72720;SDS011;60835;50.974;10.322;2022-09-17T17:54:05;4.10;;;1.70;;
72720;SDS011;60835;50.974;10.322;2022-09-17T17:56:31;7.00;;;2.08;;
72720;SDS011;60835;50.974;10.322;2022-09-17T17:58:57;8.13;;;2.80;;
72720;SDS011;60835;50.974;10.322;2022-09-17T18:01:25;5.00;;;2.05;;
72720;SDS011;60835;50.974;10.322;2022-09-17T18:03:56;5.07;;;2.67;;
72720;SDS011;60835;50.974;10.322;2022-09-17T18:06:24;5.13;;;2.08;;
72720;SDS011;60835;50.974;10.322;2022-09-17T18:08:52;6.78;;;2.90;;
72720;SDS011;60835;50.974;10.322;2022-09-17T18:11:19;9.60;;;2.40;;
72720;SDS011;60835;50.974;10.322;2022-09-17T18:13:49;5.80;;;1.65;;
72720;SDS011;60835;50.974;10.322;2022-09-17T18:16:17;4.00;;;1.55;;
72720;SDS011;60835;50.974;10.322;2022-09-17T18:18:44;3.05;;;1.00;;
72720;SDS011;60835;50.974;10.322;2022-09-17T18:21:12;2.30;;;0.80;;